Time;durP1;ratioP1;P1;durP2;ratioP2;P2;SDS_P1;SDS_P2;PMS_P1;PMS_P2;Temp;Humidity;BMP_temperature;BMP_pressure;BME280_temperature;BME280_humidity;BME280_pressure;Samples;Min_cycle;Max_cycle;Signal;HPM_P1;HPM_P2
2021/09/30 00:00:16;;;;;;;4.53;2.78;;;;;;;;;;2080988;28;20222;-59
2021/09/30 00:01:17;;;;;;;5.30;3.70;;;;;;;;;;2072756;28;20181;-61
2021/09/30 00:02:17;;;;;;;3.53;3.30;;;;;;;;;;2081043;28;20195;-61
2021/09/30 00:03:17;;;;;;;4.03;3.75;;;;;;;;;;2081571;28;20184;-57
2021/09/30 00:04:17;;;;;;;13.32;3.38;;;;;;;;;;2077050;28;20181;-58
2021/09/30 00:05:18;;;;;;;5.15;3.75;;;;;;;;;;2080003;28;20184;-53
2021/09/30 00:06:19;;;;;;;3.97;3.60;;;;;;;;;;2081645;28;20181;-58
2021/09/30 00:07:20;;;;;;;8.43;4.30;;;;;;;;;;2081002;28;20216;-58
2021/09/30 00:08:20;;;;;;;6.53;4.05;;;;;;;;;;2080790;28;20251;-57
2021/09/30 00:09:20;;;;;;;5.60;4.15;;;;;;;;;;2075758;28;20188;-57
2021/09/30 00:10:23;;;;;;;4.68;3.42;;;;;;;;;;2080197;28;20836;-58
2021/09/30 00:11:27;;;;;;;4.68;4.05;;;;;;;;;;2081249;28;20176;-58
2021/09/30 00:12:30;;;;;;;6.35;3.95;;;;;;;;;;2082131;28;20191;-59
2021/09/30 00:15:24;;;;;;;3.45;3.15;;;;;;;;;;2081697;28;20184;-59
2021/09/30 00:16:48;;;;;;;3.45;3.20;;;;;;;;;;2072602;28;20180;-58
2021/09/30 00:34:47;;;;;;;9.15;4.53;;;;;;;;;;2081178;28;20283;-60
2021/09/30 00:40:01;;;;;;;4.00;3.42;;;;;;;;;;2081771;28;20172;-59
2021/09/30 00:46:28;;;;;;;5.95;3.85;;;;;;;;;;2056671;28;20214;-59
2021/09/30 00:47:44;;;;;;;4.20;3.88;;;;;;;;;;2081471;28;20251;-60
2021/09/30 00:48:58;;;;;;;7.93;4.45;;;;;;;;;;2073778;28;20169;-60
2021/09/30 00:54:41;;;;;;;4.90;4.25;;;;;;;;;;2081648;28;20192;-60
2021/09/30 00:56:01;;;;;;;4.30;3.90;;;;;;;;;;2081682;28;20210;-57
2021/09/30 01:21:06;;;;;;;4.65;4.20;;;;;;;;;;2078388;28;20230;-58
2021/09/30 01:46:35;;;;;;;7.22;5.68;;;;;;;;;;2074528;28;20196;-60
2021/09/30 02:18:35;;;;;;;8.00;6.10;;;;;;;;;;2067460;28;20168;-61
2021/09/30 02:24:44;;;;;;;6.15;5.55;;;;;;;;;;2079961;28;20172;-60
2021/09/30 02:27:02;;;;;;;6.50;5.85;;;;;;;;;;2071334;28;20205;-55
2021/09/30 02:59:09;;;;;;;8.25;6.95;;;;;;;;;;2056281;28;20170;-59
2021/09/30 03:00:11;;;;;;;7.50;6.90;;;;;;;;;;2054127;28;20174;-58
2021/09/30 03:01:19;;;;;;;9.35;7.30;;;;;;;;;;2047560;28;20541;-58
2021/09/30 03:02:21;;;;;;;7.95;6.72;;;;;;;;;;2078966;28;20176;-58
2021/09/30 03:03:23;;;;;;;7.95;7.18;;;;;;;;;;2071704;28;20169;-57
2021/09/30 03:04:23;;;;;;;13.15;7.65;;;;;;;;;;2070789;28;20185;-60
2021/09/30 03:05:24;;;;;;;8.38;7.45;;;;;;;;;;2079008;28;20183;-57
2021/09/30 03:06:25;;;;;;;9.05;7.45;;;;;;;;;;2071277;28;20200;-60
2021/09/30 03:07:25;;;;;;;9.70;7.35;;;;;;;;;;2071638;28;20181;-59
2021/09/30 03:08:27;;;;;;;7.70;6.95;;;;;;;;;;2071739;28;20176;-58
2021/09/30 03:09:48;;;;;;;7.43;6.63;;;;;;;;;;2079548;28;20288;-59
2021/09/30 03:10:51;;;;;;;7.13;6.50;;;;;;;;;;2073905;28;20172;-59
2021/09/30 03:11:53;;;;;;;9.55;7.30;;;;;;;;;;2076506;28;20208;-58
2021/09/30 03:12:54;;;;;;;8.20;7.50;;;;;;;;;;2080604;28;20179;-60
2021/09/30 03:13:58;;;;;;;8.75;7.32;;;;;;;;;;2080104;28;20278;-59
2021/09/30 03:15:13;;;;;;;7.95;7.25;;;;;;;;;;2080243;28;20233;-58
2021/09/30 03:16:27;;;;;;;7.18;6.50;;;;;;;;;;2073518;28;20168;-58
2021/09/30 03:17:48;;;;;;;8.05;7.00;;;;;;;;;;2074128;28;20306;-60
2021/09/30 03:18:57;;;;;;;7.00;6.30;;;;;;;;;;2079607;28;20153;-59
2021/09/30 03:20:16;;;;;;;10.40;7.88;;;;;;;;;;2080463;28;20169;-58
2021/09/30 03:22:35;;;;;;;7.75;6.95;;;;;;;;;;2078819;28;20401;-57
2021/09/30 03:23:37;;;;;;;11.38;7.30;;;;;;;;;;2064229;28;20189;-59
2021/09/30 03:24:41;;;;;;;8.15;7.03;;;;;;;;;;2064276;28;20180;-59
2021/09/30 03:25:43;;;;;;;7.93;7.22;;;;;;;;;;2079341;28;20553;-57
2021/09/30 03:26:45;;;;;;;8.13;7.32;;;;;;;;;;2074742;28;20193;-59
2021/09/30 03:27:45;;;;;;;9.02;7.22;;;;;;;;;;2080245;28;20181;-58
2021/09/30 03:28:46;;;;;;;7.38;6.78;;;;;;;;;;2071141;28;20204;-59
2021/09/30 03:29:46;;;;;;;9.18;7.47;;;;;;;;;;2071994;28;20637;-58
2021/09/30 03:30:47;;;;;;;8.18;7.38;;;;;;;;;;2072357;28;20189;-60
2021/09/30 03:31:48;;;;;;;9.00;6.65;;;;;;;;;;2080156;28;20252;-59
2021/09/30 03:33:09;;;;;;;7.97;6.97;;;;;;;;;;2066759;28;20533;-60
2021/09/30 03:34:15;;;;;;;10.40;6.93;;;;;;;;;;2079552;28;20211;-58
2021/09/30 03:35:16;;;;;;;8.30;6.72;;;;;;;;;;2071996;28;20173;-60
2021/09/30 03:36:16;;;;;;;12.10;6.85;;;;;;;;;;2072433;28;20176;-56
2021/09/30 03:37:17;;;;;;;7.28;6.55;;;;;;;;;;2072130;28;20193;-59
2021/09/30 03:38:20;;;;;;;7.97;7.10;;;;;;;;;;2064291;28;20265;-58
2021/09/30 03:39:23;;;;;;;8.60;7.60;;;;;;;;;;2075438;28;20224;-56
2021/09/30 03:40:24;;;;;;;7.50;6.80;;;;;;;;;;2081075;28;20181;-55
2021/09/30 03:41:24;;;;;;;9.30;6.45;;;;;;;;;;2072038;28;20169;-58
2021/09/30 03:42:24;;;;;;;6.70;6.13;;;;;;;;;;2080637;28;20656;-60
2021/09/30 03:43:31;;;;;;;6.70;6.05;;;;;;;;;;2073248;28;20169;-60
2021/09/30 03:44:32;;;;;;;9.63;6.85;;;;;;;;;;2072504;28;20184;-59
2021/09/30 03:45:33;;;;;;;7.07;6.38;;;;;;;;;;2072445;28;20657;-56
2021/09/30 03:46:52;;;;;;;7.35;6.20;;;;;;;;;;2074686;28;20197;-59
2021/09/30 03:48:13;;;;;;;8.32;7.45;;;;;;;;;;2074405;28;20176;-56
2021/09/30 03:49:21;;;;;;;9.77;7.03;;;;;;;;;;2072221;28;20308;-59
2021/09/30 03:50:26;;;;;;;8.27;6.38;;;;;;;;;;2073273;28;20207;-57
2021/09/30 03:52:18;;;;;;;8.93;7.03;;;;;;;;;;2080703;28;20818;-58
2021/09/30 03:54:19;;;;;;;9.95;7.65;;;;;;;;;;2082402;28;20263;-59
2021/09/30 03:56:48;;;;;;;8.60;7.30;;;;;;;;;;2073574;28;20204;-60
2021/09/30 03:59:19;;;;;;;7.90;7.20;;;;;;;;;;2072890;28;20184;-57
2021/09/30 04:00:22;;;;;;;8.32;7.43;;;;;;;;;;2075884;28;20169;-60
2021/09/30 04:01:26;;;;;;;8.13;7.10;;;;;;;;;;2073361;28;20585;-59
2021/09/30 04:02:26;;;;;;;8.85;7.72;;;;;;;;;;2073281;28;20165;-60
2021/09/30 04:03:27;;;;;;;8.52;7.72;;;;;;;;;;2081815;28;20207;-57
2021/09/30 04:04:29;;;;;;;10.00;7.35;;;;;;;;;;2081721;28;20168;-59
2021/09/30 04:05:30;;;;;;;10.57;7.50;;;;;;;;;;2074044;28;20257;-59
2021/09/30 04:06:30;;;;;;;7.82;7.05;;;;;;;;;;2073600;28;20200;-59
2021/09/30 04:07:30;;;;;;;10.23;7.88;;;;;;;;;;2073738;28;20223;-58
2021/09/30 04:08:32;;;;;;;9.05;8.15;;;;;;;;;;2073345;28;20200;-62
2021/09/30 04:09:33;;;;;;;9.50;8.60;;;;;;;;;;2073502;28;20641;-59
2021/09/30 04:10:34;;;;;;;8.32;7.40;;;;;;;;;;2073623;28;20173;-59
2021/09/30 04:11:34;;;;;;;9.48;7.47;;;;;;;;;;2081972;28;20188;-61
2021/09/30 04:12:35;;;;;;;12.13;7.80;;;;;;;;;;2073725;28;20175;-60
2021/09/30 04:13:35;;;;;;;8.65;7.18;;;;;;;;;;2073466;28;20326;-58
2021/09/30 04:14:36;;;;;;;11.15;8.25;;;;;;;;;;2081652;28;20278;-57
2021/09/30 04:15:36;;;;;;;9.35;6.90;;;;;;;;;;2081706;28;20165;-57
2021/09/30 04:16:38;;;;;;;8.32;7.55;;;;;;;;;;2073414;28;20199;-59
2021/09/30 04:17:41;;;;;;;8.85;8.10;;;;;;;;;;2073889;28;20249;-60
2021/09/30 04:18:42;;;;;;;8.38;7.55;;;;;;;;;;2081069;28;20176;-58
2021/09/30 04:19:44;;;;;;;8.95;7.93;;;;;;;;;;2073617;28;20207;-56
2021/09/30 04:20:47;;;;;;;8.07;7.28;;;;;;;;;;2073408;28;20175;-57
2021/09/30 04:21:49;;;;;;;13.25;7.28;;;;;;;;;;2073514;28;20188;-58
2021/09/30 04:22:51;;;;;;;8.75;6.05;;;;;;;;;;2073925;28;20219;-58
2021/09/30 04:23:53;;;;;;;7.32;6.72;;;;;;;;;;2065409;28;20188;-59
2021/09/30 04:24:54;;;;;;;7.45;6.47;;;;;;;;;;2064275;28;20729;-59
2021/09/30 04:25:54;;;;;;;7.63;6.88;;;;;;;;;;2067628;28;20247;-58
2021/09/30 04:26:55;;;;;;;8.40;7.22;;;;;;;;;;2080175;28;20188;-60
2021/09/30 04:27:56;;;;;;;9.05;7.22;;;;;;;;;;2081662;28;20586;-55
2021/09/30 04:28:56;;;;;;;11.88;7.55;;;;;;;;;;2080659;28;20176;-60
2021/09/30 04:29:58;;;;;;;8.85;7.10;;;;;;;;;;2071974;28;20172;-60
2021/09/30 04:30:58;;;;;;;8.05;7.35;;;;;;;;;;2076768;28;20165;-59
2021/09/30 04:32:03;;;;;;;7.40;6.72;;;;;;;;;;2080140;28;20172;-60
2021/09/30 04:33:03;;;;;;;7.72;6.97;;;;;;;;;;2081018;28;20597;-58
2021/09/30 04:34:07;;;;;;;6.82;5.88;;;;;;;;;;2080565;28;20605;-57
2021/09/30 04:35:07;;;;;;;7.32;6.60;;;;;;;;;;2080069;28;20207;-61
2021/09/30 04:36:08;;;;;;;6.40;5.75;;;;;;;;;;2063362;28;20231;-58
2021/09/30 04:37:08;;;;;;;7.50;5.90;;;;;;;;;;2064734;28;20205;-61
2021/09/30 04:38:12;;;;;;;11.27;6.50;;;;;;;;;;2071375;28;20239;-56
2021/09/30 04:39:13;;;;;;;6.38;5.75;;;;;;;;;;2070575;28;20682;-58
2021/09/30 04:40:13;;;;;;;6.43;5.93;;;;;;;;;;2069338;28;20181;-59
2021/09/30 04:41:14;;;;;;;7.68;5.85;;;;;;;;;;2073116;28;20261;-56
2021/09/30 04:42:14;;;;;;;5.97;5.38;;;;;;;;;;2078684;28;20577;-61
2021/09/30 04:43:15;;;;;;;7.03;4.93;;;;;;;;;;2073194;28;20169;-59
2021/09/30 04:44:15;;;;;;;4.90;4.45;;;;;;;;;;2070542;28;20182;-58
2021/09/30 04:45:16;;;;;;;5.70;5.25;;;;;;;;;;2073283;28;20208;-61
2021/09/30 04:46:24;;;;;;;6.55;5.30;;;;;;;;;;2072951;28;20591;-60
2021/09/30 04:47:50;;;;;;;6.18;5.40;;;;;;;;;;2081052;28;20639;-59
2021/09/30 04:48:50;;;;;;;5.93;5.40;;;;;;;;;;2080258;28;20176;-58
2021/09/30 04:49:51;;;;;;;5.53;4.85;;;;;;;;;;2081082;28;20226;-60
2021/09/30 04:50:52;;;;;;;6.80;5.85;;;;;;;;;;2081445;28;20652;-61
2021/09/30 04:51:52;;;;;;;6.80;5.13;;;;;;;;;;2072478;28;20211;-61
2021/09/30 04:52:58;;;;;;;6.07;5.47;;;;;;;;;;2078715;28;20176;-57
2021/09/30 04:54:01;;;;;;;5.82;5.28;;;;;;;;;;2077510;28;20259;-60
2021/09/30 04:55:01;;;;;;;6.32;5.68;;;;;;;;;;2081450;28;20176;-62
2021/09/30 04:56:02;;;;;;;6.20;5.68;;;;;;;;;;2073148;28;20184;-60
2021/09/30 04:57:10;;;;;;;6.15;5.57;;;;;;;;;;2082271;28;20266;-61
2021/09/30 04:58:12;;;;;;;6.68;6.07;;;;;;;;;;2075542;28;20204;-62
2021/09/30 04:59:13;;;;;;;10.10;6.38;;;;;;;;;;2079496;28;20161;-62
2021/09/30 05:00:15;;;;;;;6.65;6.03;;;;;;;;;;2073234;28;20165;-61
2021/09/30 05:01:44;;;;;;;9.85;6.43;;;;;;;;;;2065707;28;20197;-63
2021/09/30 05:02:51;;;;;;;8.25;6.28;;;;;;;;;;2081201;28;20655;-60
2021/09/30 05:03:51;;;;;;;8.10;6.47;;;;;;;;;;2080835;28;20175;-61
2021/09/30 05:04:51;;;;;;;8.73;7.82;;;;;;;;;;2073116;28;20187;-60
2021/09/30 05:05:52;;;;;;;8.02;6.65;;;;;;;;;;2072734;28;20201;-56
2021/09/30 05:07:54;;;;;;;8.32;7.28;;;;;;;;;;2055457;28;20674;-55
2021/09/30 05:08:58;;;;;;;8.23;7.38;;;;;;;;;;2059233;28;20173;-53
2021/09/30 05:10:02;;;;;;;13.23;7.78;;;;;;;;;;2051796;28;20171;-52
2021/09/30 05:11:03;;;;;;;10.32;9.00;;;;;;;;;;2063941;28;20184;-53
2021/09/30 05:12:04;;;;;;;12.63;8.77;;;;;;;;;;2056014;28;20643;-54
2021/09/30 05:13:16;;;;;;;12.10;8.30;;;;;;;;;;2056248;28;20590;-52
2021/09/30 05:14:17;;;;;;;13.65;9.00;;;;;;;;;;2055925;28;20218;-53
2021/09/30 05:15:17;;;;;;;10.23;8.25;;;;;;;;;;2063947;28;20625;-51
2021/09/30 05:16:18;;;;;;;12.60;8.93;;;;;;;;;;2056649;28;20174;-54
2021/09/30 05:17:46;;;;;;;12.15;7.53;;;;;;;;;;2053905;28;20213;-49
2021/09/30 05:18:51;;;;;;;10.48;8.77;;;;;;;;;;2042101;29;20191;-50
2021/09/30 05:19:51;;;;;;;14.45;9.23;;;;;;;;;;2038970;29;20179;-54
2021/09/30 05:20:52;;;;;;;10.15;9.15;;;;;;;;;;2040374;29;20270;-49
2021/09/30 05:21:52;;;;;;;12.15;9.90;;;;;;;;;;2048298;29;20257;-51
2021/09/30 05:22:52;;;;;;;13.88;10.07;;;;;;;;;;2045077;29;20227;-53
2021/09/30 05:23:52;;;;;;;12.38;9.43;;;;;;;;;;2047789;29;20179;-52
2021/09/30 05:24:53;;;;;;;13.05;9.93;;;;;;;;;;2047584;28;20210;-52
2021/09/30 05:25:54;;;;;;;13.95;10.27;;;;;;;;;;2055703;28;20182;-52
2021/09/30 05:26:54;;;;;;;16.35;10.70;;;;;;;;;;2056241;28;20182;-49
2021/09/30 05:27:54;;;;;;;15.30;10.88;;;;;;;;;;2055463;28;20289;-50
2021/09/30 05:28:55;;;;;;;18.63;10.18;;;;;;;;;;2053642;28;20182;-50
2021/09/30 05:29:56;;;;;;;13.45;10.18;;;;;;;;;;2047953;29;20222;-52
2021/09/30 05:31:00;;;;;;;13.05;10.60;;;;;;;;;;2047247;28;20187;-52
2021/09/30 05:32:23;;;;;;;12.30;9.18;;;;;;;;;;2051494;28;20642;-52
2021/09/30 05:33:26;;;;;;;11.85;10.65;;;;;;;;;;2053520;28;20726;-64
2021/09/30 05:34:27;;;;;;;11.70;9.43;;;;;;;;;;2046547;28;20630;-50
2021/09/30 05:35:30;;;;;;;11.88;10.68;;;;;;;;;;2043204;28;20172;-58
2021/09/30 05:36:30;;;;;;;11.52;9.65;;;;;;;;;;2047097;28;20186;-53
2021/09/30 05:37:31;;;;;;;11.63;10.35;;;;;;;;;;2047361;29;20213;-51
2021/09/30 05:38:32;;;;;;;19.13;10.85;;;;;;;;;;2041502;28;20252;-55
2021/09/30 05:39:33;;;;;;;14.38;10.55;;;;;;;;;;2048218;29;20175;-53
2021/09/30 05:40:34;;;;;;;18.25;11.73;;;;;;;;;;2047572;28;20668;-54
2021/09/30 05:41:34;;;;;;;12.82;10.20;;;;;;;;;;2058132;28;20198;-56
2021/09/30 05:42:34;;;;;;;15.25;11.30;;;;;;;;;;2055827;28;20198;-56
2021/09/30 05:43:36;;;;;;;14.97;10.90;;;;;;;;;;2056700;28;20166;-56
2021/09/30 05:44:37;;;;;;;16.48;10.63;;;;;;;;;;2064389;28;20188;-54
2021/09/30 05:45:43;;;;;;;16.00;10.98;;;;;;;;;;2064659;28;20188;-55
2021/09/30 05:46:46;;;;;;;13.13;11.68;;;;;;;;;;2056636;28;20585;-54
2021/09/30 05:47:48;;;;;;;10.50;9.40;;;;;;;;;;2049149;28;20202;-53
2021/09/30 05:48:50;;;;;;;13.13;10.00;;;;;;;;;;2053654;28;20202;-53
2021/09/30 05:49:50;;;;;;;14.45;10.27;;;;;;;;;;2056778;28;20189;-52
2021/09/30 05:51:16;;;;;;;15.43;10.68;;;;;;;;;;2048800;29;20634;-53
2021/09/30 05:52:39;;;;;;;15.55;9.82;;;;;;;;;;2047308;29;20547;-57
2021/09/30 05:53:59;;;;;;;17.33;9.67;;;;;;;;;;2056858;28;20181;-51
2021/09/30 05:55:07;;;;;;;12.27;9.75;;;;;;;;;;2049820;28;20182;-53
2021/09/30 05:56:07;;;;;;;14.35;10.43;;;;;;;;;;2048755;28;20186;-57
2021/09/30 05:57:08;;;;;;;14.88;9.93;;;;;;;;;;2040770;29;20259;-57
2021/09/30 05:58:08;;;;;;;13.40;9.65;;;;;;;;;;2040366;29;20180;-56
2021/09/30 05:59:09;;;;;;;11.65;10.32;;;;;;;;;;2049038;29;20174;-57
2021/09/30 06:00:18;;;;;;;13.27;9.43;;;;;;;;;;2056891;28;20177;-52
2021/09/30 06:12:30;;;;;;;10.60;8.20;;;;;;;;;;2063670;28;20330;-56
2021/09/30 06:13:38;;;;;;;10.30;7.93;;;;;;;;;;2057775;28;20213;-57
2021/09/30 06:14:41;;;;;;;10.57;8.20;;;;;;;;;;2057124;28;20178;-56
2021/09/30 06:15:43;;;;;;;11.60;7.43;;;;;;;;;;2056454;28;20194;-53
2021/09/30 06:16:50;;;;;;;12.00;7.65;;;;;;;;;;2055437;28;20170;-58
2021/09/30 06:17:54;;;;;;;14.60;8.05;;;;;;;;;;2054107;28;20285;-56
2021/09/30 06:18:54;;;;;;;13.23;7.82;;;;;;;;;;2063977;28;20665;-58
2021/09/30 06:20:03;;;;;;;10.32;6.90;;;;;;;;;;2048995;28;20179;-58
2021/09/30 06:21:04;;;;;;;9.38;6.63;;;;;;;;;;2055657;28;20250;-58
2021/09/30 06:22:07;;;;;;;11.52;6.32;;;;;;;;;;2063242;28;20185;-57
2021/09/30 06:23:09;;;;;;;14.07;6.63;;;;;;;;;;2048974;28;20195;-53
2021/09/30 06:24:09;;;;;;;10.88;6.65;;;;;;;;;;2047699;29;20229;-54
2021/09/30 06:25:18;;;;;;;12.05;7.13;;;;;;;;;;2049100;28;20190;-53
2021/09/30 06:26:19;;;;;;;10.90;6.35;;;;;;;;;;2047564;28;20198;-57
2021/09/30 06:27:37;;;;;;;13.52;6.80;;;;;;;;;;2043724;28;20199;-56
2021/09/30 06:28:37;;;;;;;9.55;8.02;;;;;;;;;;2055558;28;20276;-57
2021/09/30 06:29:40;;;;;;;11.77;8.55;;;;;;;;;;2055867;28;20240;-55
2021/09/30 06:30:40;;;;;;;8.77;7.85;;;;;;;;;;2052259;28;20614;-58
2021/09/30 06:32:07;;;;;;;8.90;7.60;;;;;;;;;;2059596;28;20186;-55
2021/09/30 06:33:10;;;;;;;12.23;8.13;;;;;;;;;;2055823;28;20194;-58
2021/09/30 06:34:32;;;;;;;9.98;6.10;;;;;;;;;;2059038;28;20217;-56
2021/09/30 06:35:39;;;;;;;9.95;6.60;;;;;;;;;;2055207;28;20228;-58
2021/09/30 06:36:39;;;;;;;11.88;6.72;;;;;;;;;;2047939;29;20179;-58
2021/09/30 06:37:39;;;;;;;9.10;6.80;;;;;;;;;;2049589;28;20671;-56
2021/09/30 06:38:40;;;;;;;9.32;6.63;;;;;;;;;;2063325;28;20607;-58
2021/09/30 06:39:40;;;;;;;10.80;6.57;;;;;;;;;;2056035;28;20170;-58
2021/09/30 06:40:40;;;;;;;10.65;6.70;;;;;;;;;;2047951;28;20190;-57
2021/09/30 06:41:41;;;;;;;9.35;7.60;;;;;;;;;;2040525;29;20911;-58
2021/09/30 06:43:00;;;;;;;9.27;7.00;;;;;;;;;;2048097;28;20175;-57
2021/09/30 06:44:29;;;;;;;13.93;6.97;;;;;;;;;;2052196;28;20186;-56
2021/09/30 06:45:50;;;;;;;10.68;6.68;;;;;;;;;;2056023;28;20217;-59
2021/09/30 06:47:12;;;;;;;10.30;6.05;;;;;;;;;;2055340;28;20197;-59
2021/09/30 06:48:12;;;;;;;12.18;6.55;;;;;;;;;;2047853;28;20191;-58
2021/09/30 06:49:26;;;;;;;11.80;6.57;;;;;;;;;;2048614;28;20237;-54
2021/09/30 06:50:46;;;;;;;10.85;6.60;;;;;;;;;;2056756;28;20162;-59
2021/09/30 06:51:58;;;;;;;10.60;5.78;;;;;;;;;;2056462;28;20174;-57
2021/09/30 06:53:01;;;;;;;6.10;5.40;;;;;;;;;;2048510;29;20250;-58
2021/09/30 06:54:39;;;;;;;13.52;7.18;;;;;;;;;;2045521;29;20218;-58
2021/09/30 06:56:02;;;;;;;9.45;6.18;;;;;;;;;;2048503;29;20186;-57
2021/09/30 06:57:21;;;;;;;10.60;6.10;;;;;;;;;;2048136;29;20198;-56
2021/09/30 06:59:05;;;;;;;6.18;5.50;;;;;;;;;;2047479;28;20269;-53
2021/09/30 07:00:31;;;;;;;11.30;6.38;;;;;;;;;;2053966;28;20186;-49
2021/09/30 07:01:55;;;;;;;7.68;6.30;;;;;;;;;;2056622;28;20662;-53
2021/09/30 07:02:58;;;;;;;9.10;5.15;;;;;;;;;;2056914;28;20182;-51
2021/09/30 07:04:24;;;;;;;9.18;6.47;;;;;;;;;;2055734;28;20162;-52
2021/09/30 07:05:59;;;;;;;7.90;5.30;;;;;;;;;;2054786;28;20193;-54
2021/09/30 07:07:02;;;;;;;10.40;5.88;;;;;;;;;;2062827;28;20174;-51
2021/09/30 07:08:03;;;;;;;5.88;5.07;;;;;;;;;;2054800;28;20174;-51
2021/09/30 07:09:05;;;;;;;8.75;5.90;;;;;;;;;;2047404;28;20242;-58
2021/09/30 07:10:06;;;;;;;8.85;6.10;;;;;;;;;;2055347;28;20328;-54
2021/09/30 07:11:06;;;;;;;8.55;6.05;;;;;;;;;;2063539;28;20220;-55
2021/09/30 07:12:06;;;;;;;10.43;6.40;;;;;;;;;;2055453;28;20750;-51
2021/09/30 07:13:06;;;;;;;11.38;7.05;;;;;;;;;;2056587;28;20177;-55
2021/09/30 07:14:07;;;;;;;8.98;5.40;;;;;;;;;;2056235;28;20642;-54
2021/09/30 07:15:07;;;;;;;9.18;6.05;;;;;;;;;;2064384;28;20190;-54
2021/09/30 07:16:07;;;;;;;7.00;5.43;;;;;;;;;;2063915;28;20273;-55
2021/09/30 07:17:08;;;;;;;11.40;6.22;;;;;;;;;;2055674;28;20167;-54
2021/09/30 07:18:12;;;;;;;6.75;5.50;;;;;;;;;;2056663;28;20206;-56
2021/09/30 07:19:12;;;;;;;11.52;6.28;;;;;;;;;;2056370;28;20159;-56
2021/09/30 07:20:13;;;;;;;8.10;5.90;;;;;;;;;;2056251;28;20721;-55
2021/09/30 07:21:13;;;;;;;8.60;6.15;;;;;;;;;;2053870;28;20213;-54
2021/09/30 07:22:13;;;;;;;6.25;5.65;;;;;;;;;;2064354;28;20286;-56
2021/09/30 07:23:14;;;;;;;9.85;5.53;;;;;;;;;;2055687;28;20186;-55
2021/09/30 07:24:14;;;;;;;10.60;4.97;;;;;;;;;;2055976;28;20632;-59
2021/09/30 07:25:15;;;;;;;7.05;5.50;;;;;;;;;;2055727;28;20226;-61
2021/09/30 07:26:15;;;;;;;7.13;5.50;;;;;;;;;;2056667;28;20258;-56
2021/09/30 07:27:16;;;;;;;10.48;6.03;;;;;;;;;;2057059;28;20678;-53
2021/09/30 07:28:16;;;;;;;6.53;5.10;;;;;;;;;;2057868;28;20583;-53
2021/09/30 07:29:16;;;;;;;11.82;5.72;;;;;;;;;;2057502;28;20297;-55
2021/09/30 07:30:16;;;;;;;7.35;5.32;;;;;;;;;;2057757;28;20186;-56
2021/09/30 07:31:17;;;;;;;12.57;6.03;;;;;;;;;;2065229;28;20260;-59
2021/09/30 07:32:17;;;;;;;7.53;4.88;;;;;;;;;;2065195;28;20173;-58
2021/09/30 07:33:20;;;;;;;8.23;5.65;;;;;;;;;;2057985;28;20600;-58
2021/09/30 07:34:20;;;;;;;9.32;5.35;;;;;;;;;;2057883;28;20654;-57
2021/09/30 07:35:21;;;;;;;11.25;5.53;;;;;;;;;;2057881;28;20174;-55
2021/09/30 07:36:21;;;;;;;9.15;5.50;;;;;;;;;;2058240;28;20198;-55
2021/09/30 07:37:21;;;;;;;8.88;5.18;;;;;;;;;;2065423;28;20936;-56
2021/09/30 07:38:22;;;;;;;6.45;5.13;;;;;;;;;;2065629;28;20602;-54
2021/09/30 07:39:23;;;;;;;11.68;5.47;;;;;;;;;;2057784;28;20182;-55
2021/09/30 07:40:23;;;;;;;8.38;5.95;;;;;;;;;;2058607;28;20174;-56
2021/09/30 07:41:24;;;;;;;6.53;5.13;;;;;;;;;;2057950;28;20184;-55
2021/09/30 07:42:24;;;;;;;5.72;5.18;;;;;;;;;;2065456;28;20669;-56
2021/09/30 07:43:24;;;;;;;11.50;5.10;;;;;;;;;;2065146;28;20181;-56
2021/09/30 07:44:27;;;;;;;7.68;5.75;;;;;;;;;;2057951;28;20189;-55
2021/09/30 07:45:28;;;;;;;7.00;5.00;;;;;;;;;;2058236;28;20707;-57
2021/09/30 07:46:28;;;;;;;9.65;5.40;;;;;;;;;;2057065;28;20182;-61
2021/09/30 07:47:28;;;;;;;7.97;4.47;;;;;;;;;;2057948;28;20198;-58
2021/09/30 07:48:29;;;;;;;7.47;4.53;;;;;;;;;;2058771;28;20269;-57
2021/09/30 07:49:30;;;;;;;7.18;4.75;;;;;;;;;;2057821;28;20659;-57
2021/09/30 07:50:30;;;;;;;7.13;4.90;;;;;;;;;;2052711;28;20721;-57
2021/09/30 07:51:35;;;;;;;7.15;4.70;;;;;;;;;;2058330;28;20174;-56
2021/09/30 07:52:35;;;;;;;8.05;4.60;;;;;;;;;;2057871;28;20185;-55
2021/09/30 07:53:35;;;;;;;9.88;4.72;;;;;;;;;;2058207;28;20175;-58
2021/09/30 07:54:36;;;;;;;7.63;4.97;;;;;;;;;;2057578;28;20603;-55
2021/09/30 07:55:36;;;;;;;11.90;5.32;;;;;;;;;;2057583;28;20198;-55
2021/09/30 07:56:37;;;;;;;7.35;4.50;;;;;;;;;;2057547;28;20593;-57
2021/09/30 07:57:37;;;;;;;5.47;4.13;;;;;;;;;;2058194;28;20557;-57
2021/09/30 07:58:37;;;;;;;9.27;4.55;;;;;;;;;;2057358;28;20241;-57
2021/09/30 07:59:40;;;;;;;8.05;4.70;;;;;;;;;;2057883;28;20252;-54
2021/09/30 08:00:41;;;;;;;7.63;4.40;;;;;;;;;;2057649;28;20175;-57
2021/09/30 08:01:41;;;;;;;6.78;4.50;;;;;;;;;;2065452;28;20557;-52
2021/09/30 08:02:42;;;;;;;6.88;4.28;;;;;;;;;;2064754;28;20190;-55
2021/09/30 08:03:42;;;;;;;6.10;4.28;;;;;;;;;;2057723;28;20166;-54
2021/09/30 08:04:42;;;;;;;6.95;4.68;;;;;;;;;;2057740;28;20213;-54
2021/09/30 08:05:42;;;;;;;7.53;4.57;;;;;;;;;;2057836;28;20565;-56
2021/09/30 08:06:43;;;;;;;5.85;4.18;;;;;;;;;;2057394;28;20182;-55
2021/09/30 08:07:44;;;;;;;6.10;4.82;;;;;;;;;;2057380;28;20206;-56
2021/09/30 08:08:44;;;;;;;6.55;4.10;;;;;;;;;;2056926;28;20265;-57
2021/09/30 08:09:44;;;;;;;9.20;4.45;;;;;;;;;;2057368;28;20531;-56
2021/09/30 08:10:45;;;;;;;8.77;4.43;;;;;;;;;;2058274;28;20178;-55
2021/09/30 08:11:45;;;;;;;7.90;3.95;;;;;;;;;;2057947;28;20241;-53
2021/09/30 08:12:46;;;;;;;7.32;4.28;;;;;;;;;;2057601;28;20186;-54
2021/09/30 08:13:46;;;;;;;7.25;4.57;;;;;;;;;;2057245;28;20189;-54
2021/09/30 08:14:46;;;;;;;9.90;5.15;;;;;;;;;;2057121;28;20560;-56
2021/09/30 08:15:47;;;;;;;8.82;4.32;;;;;;;;;;2058110;28;20182;-55
2021/09/30 08:16:49;;;;;;;10.98;4.75;;;;;;;;;;2057475;28;20728;-55
2021/09/30 08:17:49;;;;;;;7.70;4.53;;;;;;;;;;2058090;28;20190;-54
2021/09/30 08:18:49;;;;;;;10.95;4.80;;;;;;;;;;2057790;28;20174;-56
2021/09/30 08:19:49;;;;;;;7.60;3.90;;;;;;;;;;2057991;28;20201;-53
2021/09/30 08:20:50;;;;;;;7.82;4.38;;;;;;;;;;2056653;28;20189;-57
2021/09/30 08:21:51;;;;;;;9.82;4.72;;;;;;;;;;2055097;28;20185;-58
2021/09/30 08:22:53;;;;;;;6.07;4.68;;;;;;;;;;2065619;28;20577;-56
2021/09/30 08:23:53;;;;;;;7.85;4.80;;;;;;;;;;2065817;28;20196;-55
2021/09/30 08:24:53;;;;;;;11.48;4.70;;;;;;;;;;2055712;28;20192;-58
2021/09/30 08:25:53;;;;;;;8.55;4.00;;;;;;;;;;2058577;28;20663;-58
2021/09/30 08:26:54;;;;;;;6.32;3.92;;;;;;;;;;2058483;28;20589;-57
2021/09/30 08:27:54;;;;;;;7.63;3.90;;;;;;;;;;2058274;28;20178;-57
2021/09/30 08:28:54;;;;;;;5.18;3.67;;;;;;;;;;2058454;28;20331;-57
2021/09/30 08:29:55;;;;;;;9.20;4.13;;;;;;;;;;2058166;28;20598;-58
2021/09/30 08:30:56;;;;;;;5.40;3.83;;;;;;;;;;2058419;28;20631;-55
2021/09/30 08:31:56;;;;;;;6.68;3.85;;;;;;;;;;2055819;28;20197;-57
2021/09/30 08:32:57;;;;;;;7.03;4.13;;;;;;;;;;2058310;28;20610;-55
2021/09/30 08:33:58;;;;;;;6.50;3.75;;;;;;;;;;2058351;28;20178;-57
2021/09/30 08:34:59;;;;;;;8.32;3.63;;;;;;;;;;2056905;28;20203;-57
2021/09/30 08:35:59;;;;;;;8.32;3.70;;;;;;;;;;2054893;28;20242;-58
2021/09/30 08:37:00;;;;;;;8.70;4.30;;;;;;;;;;2057499;28;20178;-54
2021/09/30 08:38:00;;;;;;;9.63;4.20;;;;;;;;;;2055833;28;20177;-57
2021/09/30 08:39:02;;;;;;;6.28;3.67;;;;;;;;;;2056728;28;20849;-56
2021/09/30 08:40:03;;;;;;;2.97;2.75;;;;;;;;;;2057799;28;20229;-57
2021/09/30 08:41:03;;;;;;;9.25;3.67;;;;;;;;;;2056024;28;20198;-57
2021/09/30 08:42:04;;;;;;;6.88;3.90;;;;;;;;;;2055602;28;20193;-58
2021/09/30 08:43:04;;;;;;;7.90;3.55;;;;;;;;;;2054564;28;20193;-59
2021/09/30 08:44:05;;;;;;;5.38;3.50;;;;;;;;;;2062283;28;20844;-56
2021/09/30 08:45:06;;;;;;;10.95;3.88;;;;;;;;;;2060663;28;20253;-57
2021/09/30 08:46:06;;;;;;;8.57;3.88;;;;;;;;;;2057686;28;20182;-57
2021/09/30 08:47:07;;;;;;;5.22;3.05;;;;;;;;;;2054818;28;20197;-57
2021/09/30 08:48:07;;;;;;;6.40;3.40;;;;;;;;;;2053300;28;20605;-57
2021/09/30 08:49:08;;;;;;;6.05;3.42;;;;;;;;;;2055572;28;20193;-57
2021/09/30 08:50:08;;;;;;;9.75;3.38;;;;;;;;;;2064589;28;20205;-58
2021/09/30 08:51:10;;;;;;;6.82;3.47;;;;;;;;;;2064157;28;20177;-56
2021/09/30 08:52:10;;;;;;;3.90;3.40;;;;;;;;;;2052788;28;20707;-58
2021/09/30 08:53:12;;;;;;;6.63;3.60;;;;;;;;;;2061489;28;20252;-56
2021/09/30 08:54:14;;;;;;;8.57;3.08;;;;;;;;;;2065459;28;20209;-57
2021/09/30 08:55:15;;;;;;;4.35;3.65;;;;;;;;;;2063950;28;20187;-56
2021/09/30 08:56:15;;;;;;;6.28;3.35;;;;;;;;;;2056965;28;20190;-57
2021/09/30 08:57:15;;;;;;;5.72;3.47;;;;;;;;;;2056539;28;20206;-55
2021/09/30 08:58:16;;;;;;;6.00;3.50;;;;;;;;;;2056947;28;20189;-56
2021/09/30 08:59:23;;;;;;;7.78;3.55;;;;;;;;;;2054116;28;20178;-58
2021/09/30 09:00:23;;;;;;;6.18;3.67;;;;;;;;;;2057444;28;20638;-58
2021/09/30 09:01:24;;;;;;;4.53;3.40;;;;;;;;;;2055145;28;20182;-57
2021/09/30 09:02:24;;;;;;;6.40;3.72;;;;;;;;;;2057210;28;20174;-57
2021/09/30 09:03:32;;;;;;;6.50;3.33;;;;;;;;;;2050556;28;20235;-54
2021/09/30 09:04:32;;;;;;;7.88;3.20;;;;;;;;;;2055448;28;20606;-56
2021/09/30 09:05:35;;;;;;;6.50;3.60;;;;;;;;;;2056220;28;20218;-56
2021/09/30 09:06:36;;;;;;;8.23;3.78;;;;;;;;;;2056522;28;20182;-56
2021/09/30 09:07:37;;;;;;;7.80;3.28;;;;;;;;;;2057499;28;20619;-54